createdAt,value
2023-04-27T00:01:56.662Z,54.26
2023-04-27T00:06:59.449Z,58.63
2023-04-27T00:12:02.319Z,65.63
2023-04-27T00:17:05.077Z,60.02
2023-04-27T00:22:08.961Z,52.41
2023-04-27T00:27:13.722Z,57.59
2023-04-27T00:32:16.602Z,63.74
2023-04-27T00:37:19.711Z,62.74
2023-04-27T00:42:25.088Z,52.65
2023-04-27T00:47:30.551Z,57.54
2023-04-27T00:52:33.592Z,58.69
2023-04-27T00:57:36.366Z,66.56
2023-04-27T01:02:40.353Z,61.52
2023-04-27T01:07:43.188Z,51.44
2023-04-27T01:12:45.949Z,55.51
2023-04-27T01:17:48.789Z,62.18
2023-04-27T01:22:51.660Z,64.16
2023-04-27T01:27:54.893Z,51.68
2023-04-27T01:32:57.613Z,55.14
2023-04-27T01:38:00.558Z,59.33
2023-04-27T01:43:03.575Z,66.33
2023-04-27T01:48:06.699Z,53.13
2023-04-27T01:53:09.799Z,55.24
2023-04-27T01:58:12.522Z,62.59
2023-04-27T02:03:15.386Z,61.85
2023-04-27T02:08:18.396Z,52.73
2023-04-27T02:13:21.269Z,58.34
2023-04-27T02:18:25.052Z,64.69
2023-04-27T02:23:27.830Z,61.13
2023-04-27T02:28:31.135Z,52.68
2023-04-27T02:33:34.504Z,57.83
2023-04-27T02:38:37.243Z,65.98
2023-04-27T02:43:40.084Z,55.90
2023-04-27T02:48:42.929Z,54.66
2023-04-27T02:53:45.796Z,60.16
2023-04-27T02:58:49.160Z,66.68
2023-04-27T03:03:52.139Z,54.19
2023-04-27T03:08:55.136Z,57.30
2023-04-27T03:13:57.894Z,64.05
2023-04-27T03:19:00.974Z,61.65
2023-04-27T03:24:03.969Z,53.25
2023-04-27T03:29:06.744Z,59.54
2023-04-27T03:34:09.614Z,66.61
2023-04-27T03:39:12.541Z,53.98
2023-04-27T03:44:15.908Z,55.21
2023-04-27T03:49:18.661Z,59.05
2023-04-27T03:54:21.677Z,62.42
2023-04-27T03:59:24.470Z,67.70
2023-04-27T04:04:27.380Z,53.09
2023-04-27T04:09:30.737Z,55.97
2023-04-27T04:14:33.509Z,60.07
2023-04-27T04:19:36.390Z,67.54
2023-04-27T04:24:40.270Z,53.97
2023-04-27T04:29:43.086Z,53.48
2023-04-27T04:34:51.991Z,58.17
2023-04-27T04:39:54.738Z,62.77
2023-04-27T04:44:58.975Z,66.26
2023-04-27T04:50:02.170Z,52.58
2023-04-27T04:55:05.220Z,56.48
2023-04-27T05:00:14.883Z,62.36
2023-04-27T05:05:17.661Z,59.02
2023-04-27T05:10:20.460Z,55.39
2023-04-27T05:15:23.358Z,60.25
2023-04-27T05:20:26.107Z,63.76
2023-04-27T05:25:33.059Z,54.51
2023-04-27T05:30:36.881Z,58.82
2023-04-27T05:35:39.657Z,62.93
2023-04-27T05:40:42.442Z,56.45
2023-04-27T05:45:45.216Z,60.07
2023-04-27T05:50:48.089Z,65.59
2023-04-27T05:55:58.130Z,55.93
2023-04-27T06:01:01.758Z,57.67
2023-04-27T06:06:04.927Z,59.88
2023-04-27T06:11:07.684Z,64.97
2023-04-27T06:16:10.734Z,55.01
2023-04-27T06:21:13.548Z,56.84
2023-04-27T06:26:17.911Z,61.36
2023-04-27T06:31:20.858Z,57.64
2023-04-27T06:36:26.930Z,55.67
2023-04-27T06:41:29.765Z,58.98
2023-04-27T06:46:32.724Z,62.07
2023-04-27T06:51:35.889Z,54.93
2023-04-27T06:56:38.725Z,57.20
2023-04-27T07:01:41.591Z,57.86
2023-04-27T07:06:44.374Z,58.85
2023-04-27T07:11:47.254Z,59.54
2023-04-27T07:16:50.037Z,59.49
2023-04-27T07:21:52.773Z,59.68
2023-04-27T07:26:57.727Z,59.38
2023-04-27T07:32:00.495Z,58.36
2023-04-27T07:37:03.360Z,58.30
2023-04-27T07:42:06.305Z,56.20
2023-04-27T07:47:09.238Z,55.95
2023-04-27T07:52:12.673Z,56.60
2023-04-27T07:57:15.692Z,55.75
2023-04-27T08:02:20.379Z,56.97
2023-04-27T08:07:24.086Z,56.52
2023-04-27T08:12:27.087Z,53.96
2023-04-27T08:17:29.923Z,52.89
2023-04-27T08:22:32.881Z,51.34
2023-04-27T08:27:42.917Z,51.60
2023-04-27T08:32:45.895Z,51.09
2023-04-27T08:37:49.072Z,51.54
2023-04-27T08:42:56.959Z,51.68
2023-04-27T08:48:00.117Z,53.30
2023-04-27T08:53:03.464Z,54.44
2023-04-27T08:58:10.996Z,54.49
2023-04-27T09:03:29.797Z,52.77
2023-04-27T09:08:45.686Z,52.05
2023-04-27T09:13:51.060Z,49.15
2023-04-27T09:18:55.755Z,48.28
2023-04-27T09:24:14.837Z,47.11
2023-04-27T09:29:18.132Z,48.60
2023-04-27T09:34:21.093Z,49.82
2023-04-27T09:39:23.954Z,49.73
2023-04-27T09:44:28.735Z,48.46
2023-04-27T09:49:34.598Z,45.55
2023-04-27T09:54:37.657Z,44.78
2023-04-27T09:59:46.317Z,45.48
2023-04-27T10:05:13.958Z,44.72
2023-04-27T10:10:18.695Z,43.94
2023-04-27T10:15:29.916Z,43.84
2023-04-27T10:20:37.540Z,43.70
2023-04-27T10:25:41.947Z,44.07
2023-04-27T10:30:48.517Z,44.90
2023-04-27T10:35:58.978Z,45.58
2023-04-27T10:41:05.260Z,46.90
2023-04-27T10:46:10.787Z,46.31
2023-04-27T10:51:18.032Z,46.11
2023-04-27T10:56:21.072Z,45.97
2023-04-27T11:01:27.070Z,45.00
2023-04-27T11:06:32.545Z,45.75
2023-04-27T11:11:35.403Z,46.72
2023-04-27T11:16:46.295Z,47.05
2023-04-27T11:21:49.353Z,47.63
2023-04-27T11:26:53.348Z,47.87
2023-04-27T11:31:56.300Z,47.91
2023-04-27T11:42:18.791Z,46.46
2023-04-27T11:47:22.962Z,45.89
2023-04-27T11:52:33.524Z,42.10
2023-04-27T11:57:36.798Z,42.24
2023-04-27T12:02:39.847Z,40.31
2023-04-27T12:07:43.547Z,38.31
2023-04-27T12:12:47.154Z,38.42
2023-04-27T12:17:50.994Z,39.13
2023-04-27T12:22:54.509Z,40.16
2023-04-27T12:27:57.829Z,41.33
2023-04-27T12:33:00.951Z,40.68
2023-04-27T12:38:03.775Z,39.26
2023-04-27T12:43:08.529Z,40.05
2023-04-27T12:48:11.914Z,40.60
2023-04-27T12:53:14.760Z,40.94
2023-04-27T12:58:17.579Z,40.74
2023-04-27T13:03:20.618Z,41.64
2023-04-27T13:08:23.699Z,44.61
2023-04-27T13:13:26.998Z,46.21
2023-04-27T13:18:32.865Z,50.17
2023-04-27T13:23:37.559Z,53.08
2023-04-27T13:28:41.128Z,55.28
2023-04-27T13:33:44.595Z,55.83
2023-04-27T13:38:48.262Z,57.64
2023-04-27T13:43:51.136Z,55.56
2023-04-27T13:48:53.972Z,54.31
2023-04-27T13:53:56.761Z,52.84
2023-04-27T13:59:01.347Z,52.54
2023-04-27T14:04:04.317Z,50.61
2023-04-27T14:09:07.298Z,49.11
2023-04-27T14:14:09.992Z,50.44
2023-04-27T14:19:16.013Z,50.76
2023-04-27T14:24:19.871Z,51.93
2023-04-27T14:29:23.705Z,53.07
2023-04-27T14:34:26.865Z,54.77
2023-04-27T14:39:29.536Z,55.95
2023-04-27T14:44:32.276Z,57.30
2023-04-27T14:49:35.008Z,58.51
2023-04-27T14:54:38.807Z,58.65
2023-04-27T14:59:41.594Z,58.64
2023-04-27T15:04:44.405Z,58.22
2023-04-27T15:09:47.309Z,59.04
2023-04-27T15:14:51.800Z,59.16
2023-04-27T15:19:54.692Z,59.77
2023-04-27T15:24:57.525Z,58.91
2023-04-27T15:30:00.467Z,57.53
2023-04-27T15:35:04.739Z,53.83
2023-04-27T15:40:08.805Z,53.73
2023-04-27T15:45:11.690Z,45.26
2023-04-27T15:50:14.501Z,44.61
2023-04-27T15:55:17.180Z,45.41
2023-04-27T16:00:22.340Z,46.55
2023-04-27T16:05:25.460Z,47.84
2023-04-27T16:10:28.399Z,49.62
2023-04-27T16:15:31.183Z,51.09
2023-04-27T16:20:36.419Z,51.85
2023-04-27T16:25:39.457Z,51.13
2023-04-27T16:30:42.195Z,51.78
2023-04-27T16:35:44.981Z,53.08
2023-04-27T16:40:47.836Z,52.38
2023-04-27T16:45:51.095Z,47.32
2023-04-27T16:50:55.216Z,43.30
2023-04-27T16:56:02.178Z,43.63
2023-04-27T17:01:05.095Z,38.54
2023-04-27T17:06:07.891Z,36.76
2023-04-27T17:11:11.793Z,37.99
2023-04-27T17:16:16.136Z,38.33
2023-04-27T17:21:19.548Z,37.97
2023-04-27T17:26:22.759Z,36.88
2023-04-27T17:31:28.508Z,37.29
2023-04-27T17:36:31.633Z,38.56
2023-04-27T17:41:36.769Z,40.40
2023-04-27T17:46:46.531Z,41.24
2023-04-27T17:51:49.413Z,42.56
2023-04-27T17:56:52.123Z,44.29
2023-04-27T18:01:54.968Z,45.63
2023-04-27T18:06:57.772Z,46.52
2023-04-27T18:12:00.776Z,45.95
2023-04-27T18:17:03.601Z,47.02
2023-04-27T18:22:06.333Z,48.32
2023-04-27T18:27:09.170Z,48.65
2023-04-27T18:32:12.219Z,50.30
2023-04-27T18:37:15.101Z,51.81
2023-04-27T18:42:20.806Z,50.09
2023-04-27T18:47:23.581Z,52.35
2023-04-27T18:52:26.560Z,53.53
2023-04-27T18:57:33.150Z,57.14
2023-04-27T19:02:35.974Z,59.78
2023-04-27T19:07:38.830Z,58.72
2023-04-27T19:12:41.685Z,60.94
2023-04-27T19:17:44.566Z,60.39
2023-04-27T19:22:47.851Z,60.88
2023-04-27T19:27:50.792Z,72.54
2023-04-27T19:32:53.547Z,60.83
2023-04-27T19:37:56.449Z,52.01
2023-04-27T19:42:59.329Z,55.78
2023-04-27T19:48:02.190Z,59.25
2023-04-27T19:53:04.995Z,60.81
2023-04-27T19:58:07.885Z,69.00
2023-04-27T20:03:12.701Z,55.41
2023-04-27T20:08:15.811Z,53.61
2023-04-27T20:13:18.570Z,58.33
2023-04-27T20:18:21.328Z,61.20
2023-04-27T20:23:24.181Z,68.74
2023-04-27T20:28:28.049Z,55.41
2023-04-27T20:33:32.823Z,54.99
2023-04-27T20:38:35.921Z,59.14
2023-04-27T20:43:40.302Z,64.24
2023-04-27T20:48:43.114Z,64.76
2023-04-27T20:53:45.931Z,52.65
2023-04-27T20:58:48.674Z,57.43
2023-04-27T21:03:52.416Z,61.65
2023-04-27T21:08:55.705Z,67.04
2023-04-27T21:13:58.536Z,53.31
2023-04-27T21:19:01.336Z,56.93
2023-04-27T21:24:08.199Z,61.02
2023-04-27T21:29:11.411Z,70.09
2023-04-27T21:34:14.436Z,55.26
2023-04-27T21:39:17.348Z,56.01
2023-04-27T21:44:20.101Z,60.49
2023-04-27T21:49:22.928Z,68.09
2023-04-27T21:54:25.803Z,55.50
2023-04-27T21:59:28.515Z,55.73
2023-04-27T22:04:31.374Z,59.99
2023-04-27T22:09:35.744Z,63.90
2023-04-27T22:14:38.551Z,66.03
2023-04-27T22:19:41.641Z,52.81
2023-04-27T22:24:44.447Z,56.29
2023-04-27T22:29:47.212Z,60.43
2023-04-27T22:34:50.449Z,68.19
2023-04-27T22:39:53.100Z,55.39
2023-04-27T22:44:55.829Z,54.77
2023-04-27T22:49:59.231Z,59.53
2023-04-27T22:55:02.360Z,60.83
2023-04-27T23:00:06.202Z,65.63
2023-04-27T23:05:11.043Z,66.63
2023-04-27T23:10:15.258Z,53.21
2023-04-27T23:15:18.671Z,57.19
2023-04-27T23:20:28.018Z,60.68
2023-04-27T23:25:33.235Z,69.90
2023-04-27T23:30:36.594Z,55.88
2023-04-27T23:35:39.790Z,54.81
2023-04-27T23:40:42.616Z,60.00
2023-04-27T23:45:52.770Z,68.05
2023-04-27T23:51:01.012Z,54.17
2023-04-27T23:56:03.956Z,56.25
